createdAt,value
2017-09-02T00:02:07.930Z,72.10
2017-09-02T00:04:35.568Z,72.00
2017-09-02T00:07:03.158Z,72.20
2017-09-02T00:09:30.767Z,72.30
2017-09-02T00:11:58.354Z,72.10
2017-09-02T00:14:25.947Z,72.10
2017-09-02T00:16:53.568Z,72.10
2017-09-02T00:19:21.198Z,71.90
2017-09-02T00:21:48.840Z,72.10
2017-09-02T00:24:16.433Z,72.20
2017-09-02T00:26:44.080Z,72.10
2017-09-02T00:29:11.671Z,71.90
2017-09-02T00:31:39.286Z,71.80
2017-09-02T00:34:06.882Z,71.80
2017-09-02T00:36:34.789Z,72.10
2017-09-02T00:39:02.452Z,71.90
2017-09-02T00:41:30.046Z,71.90
2017-09-02T00:43:57.644Z,71.90
2017-09-02T00:46:25.294Z,71.80
2017-09-02T00:48:52.878Z,71.80
2017-09-02T00:51:20.617Z,72.00
2017-09-02T00:53:48.967Z,71.90
2017-09-02T00:56:16.639Z,71.90
2017-09-02T00:58:44.227Z,71.80
2017-09-02T01:01:11.814Z,72.00
2017-09-02T01:03:39.441Z,71.80
2017-09-02T01:06:07.302Z,71.80
2017-09-02T01:08:34.935Z,71.80
2017-09-02T01:11:02.531Z,72.00
2017-09-02T01:13:30.895Z,71.90
2017-09-02T01:15:58.572Z,71.80
2017-09-02T01:18:26.207Z,71.70
2017-09-02T01:20:53.794Z,71.80
2017-09-02T01:23:21.389Z,71.70
2017-09-02T01:25:49.019Z,71.50
2017-09-02T01:28:17.374Z,71.60
2017-09-02T01:30:45.058Z,71.50
2017-09-02T01:33:12.647Z,71.80
2017-09-02T01:35:40.433Z,71.80
2017-09-02T01:38:08.018Z,71.80
2017-09-02T01:40:35.706Z,71.70
2017-09-02T01:43:04.059Z,71.90
2017-09-02T01:45:31.654Z,71.90
2017-09-02T01:47:59.243Z,71.60
2017-09-02T01:50:26.834Z,71.50
2017-09-02T01:52:54.462Z,71.40
2017-09-02T01:55:22.055Z,71.40
2017-09-02T01:57:49.689Z,71.60
2017-09-02T02:00:17.274Z,71.40
2017-09-02T02:02:44.861Z,71.20
2017-09-02T02:05:12.459Z,72.10
2017-09-02T02:07:40.115Z,71.20
2017-09-02T02:10:07.770Z,71.10
2017-09-02T02:12:35.367Z,71.40
2017-09-02T02:15:02.959Z,71.40
2017-09-02T02:17:30.550Z,71.10
2017-09-02T02:19:58.213Z,71.10
2017-09-02T02:22:26.595Z,71.10
2017-09-02T02:24:54.258Z,71.10
2017-09-02T02:27:21.927Z,71.20
2017-09-02T02:29:49.516Z,71.10
2017-09-02T02:32:17.150Z,71.10
2017-09-02T02:34:44.787Z,70.90
2017-09-02T02:37:12.474Z,71.00
2017-09-02T02:39:40.068Z,71.10
2017-09-02T02:42:07.653Z,71.00
2017-09-02T02:44:35.250Z,71.00
2017-09-02T02:47:02.921Z,71.10
2017-09-02T02:49:30.508Z,70.70
2017-09-02T02:51:58.150Z,70.80
2017-09-02T02:54:25.808Z,70.80
2017-09-02T02:56:53.467Z,70.70
2017-09-02T02:59:21.134Z,70.50
2017-09-02T03:01:49.491Z,70.20
2017-09-02T03:04:17.174Z,70.20
2017-09-02T03:06:45.528Z,70.60
2017-09-02T03:09:13.117Z,70.50
2017-09-02T03:11:40.719Z,70.40
2017-09-02T03:14:08.354Z,70.50
2017-09-02T03:16:36.726Z,70.50
2017-09-02T03:19:04.320Z,70.60
2017-09-02T03:21:31.907Z,70.60
2017-09-02T03:23:59.490Z,70.60
2017-09-02T03:26:27.083Z,70.40
2017-09-02T03:28:54.669Z,70.50
2017-09-02T03:31:23.102Z,70.20
2017-09-02T03:33:50.695Z,70.20
2017-09-02T03:36:18.289Z,70.00
2017-09-02T03:38:45.875Z,70.10
2017-09-02T03:41:13.555Z,70.10
2017-09-02T03:43:41.275Z,71.00
2017-09-02T03:46:08.854Z,70.20
2017-09-02T03:48:36.451Z,69.90
2017-09-02T03:51:04.807Z,69.90
2017-09-02T03:53:32.395Z,69.90
2017-09-02T03:56:00.029Z,69.90
2017-09-02T03:58:27.706Z,69.60
2017-09-02T04:00:56.061Z,70.30
2017-09-02T04:03:23.715Z,69.40
2017-09-02T04:05:51.311Z,69.40
2017-09-02T04:08:19.696Z,69.20
2017-09-02T04:10:47.289Z,69.10
2017-09-02T04:13:14.925Z,69.10
2017-09-02T04:15:42.523Z,69.20
2017-09-02T04:18:10.143Z,69.10
2017-09-02T04:20:37.737Z,69.10
2017-09-02T04:23:05.323Z,68.70
2017-09-02T04:25:32.920Z,68.80
2017-09-02T04:28:00.511Z,68.90
2017-09-02T04:30:28.242Z,69.00
2017-09-02T04:32:55.907Z,69.00
2017-09-02T04:35:23.571Z,68.90
2017-09-02T04:37:51.163Z,69.20
2017-09-02T04:40:18.794Z,68.50
2017-09-02T04:42:47.150Z,68.80
2017-09-02T04:45:14.859Z,68.80
2017-09-02T04:47:42.448Z,68.90
2017-09-02T04:50:10.071Z,69.00
2017-09-02T04:52:37.663Z,68.80
2017-09-02T04:55:05.314Z,68.30
2017-09-02T04:57:32.955Z,68.70
2017-09-02T05:00:00.614Z,68.60
2017-09-02T05:02:28.974Z,69.00
2017-09-02T05:04:56.566Z,68.90
2017-09-02T05:07:24.958Z,68.90
2017-09-02T05:09:52.551Z,68.80
2017-09-02T05:12:20.183Z,68.80
2017-09-02T05:14:47.830Z,68.90
2017-09-02T05:17:15.425Z,68.80
2017-09-02T05:19:43.090Z,68.50
2017-09-02T05:22:10.691Z,68.80
2017-09-02T05:24:38.326Z,69.00
2017-09-02T05:27:05.916Z,69.00
2017-09-02T05:29:33.616Z,68.70
2017-09-02T05:32:01.256Z,68.30
2017-09-02T05:34:28.850Z,69.00
2017-09-02T05:36:56.493Z,69.30
2017-09-02T05:39:24.088Z,69.40
2017-09-02T05:41:51.680Z,69.70
2017-09-02T05:44:19.318Z,69.70
2017-09-02T05:46:46.912Z,70.10
2017-09-02T05:49:14.590Z,69.60
2017-09-02T05:51:42.198Z,69.60
2017-09-02T05:54:09.919Z,69.90
2017-09-02T05:56:37.526Z,69.90
2017-09-02T05:59:05.246Z,69.90
2017-09-02T06:01:32.841Z,69.50
2017-09-02T06:04:00.470Z,69.70
2017-09-02T06:06:28.112Z,69.50
2017-09-02T06:08:55.783Z,69.50
2017-09-02T06:11:24.171Z,69.20
2017-09-02T06:13:51.805Z,70.00
2017-09-02T06:16:19.398Z,69.60
2017-09-02T06:18:46.987Z,67.70
2017-09-02T06:21:15.001Z,67.90
2017-09-02T06:26:02.397Z,67.50
2017-09-02T06:28:29.994Z,68.10
2017-09-02T06:30:57.695Z,68.20
2017-09-02T06:33:25.358Z,68.20
2017-09-02T06:35:52.942Z,68.30
2017-09-02T06:38:20.541Z,68.40
2017-09-02T06:40:48.194Z,68.60
2017-09-02T06:43:15.784Z,68.80
2017-09-02T06:45:43.516Z,68.60
2017-09-02T06:48:11.230Z,68.30
2017-09-02T06:50:38.817Z,68.30
2017-09-02T06:53:06.458Z,68.60
2017-09-02T06:55:34.816Z,68.50
2017-09-02T06:58:02.407Z,68.50
2017-09-02T07:00:30.044Z,68.40
2017-09-02T07:02:57.645Z,68.20
2017-09-02T07:05:25.244Z,68.10
2017-09-02T07:07:52.850Z,68.40
2017-09-02T07:10:20.530Z,68.30
2017-09-02T07:12:48.182Z,68.40
2017-09-02T07:15:15.770Z,68.10
2017-09-02T07:17:43.358Z,68.20
2017-09-02T07:20:10.945Z,68.40
2017-09-02T07:22:38.632Z,67.60
2017-09-02T07:25:06.298Z,67.50
2017-09-02T07:27:34.676Z,66.60
2017-09-02T07:30:02.276Z,66.50
2017-09-02T07:32:29.866Z,66.10
2017-09-02T07:34:57.467Z,65.50
2017-09-02T07:37:25.852Z,65.20
2017-09-02T07:39:53.502Z,65.30
2017-09-02T07:42:21.166Z,65.20
2017-09-02T07:44:48.823Z,65.00
2017-09-02T07:47:16.415Z,64.90
2017-09-02T07:49:44.026Z,64.90
2017-09-02T07:52:11.688Z,64.70
2017-09-02T07:54:39.282Z,64.60
2017-09-02T07:57:06.944Z,65.30
2017-09-02T07:59:34.539Z,64.40
2017-09-02T08:02:02.170Z,64.40
2017-09-02T08:04:29.798Z,64.10
2017-09-02T08:06:57.399Z,64.00
2017-09-02T08:09:25.023Z,64.10
2017-09-02T08:11:52.616Z,63.90
2017-09-02T08:14:21.014Z,64.00
2017-09-02T08:16:48.655Z,63.90
2017-09-02T08:19:16.431Z,63.80
2017-09-02T08:21:44.026Z,63.80
2017-09-02T08:24:11.611Z,63.80
2017-09-02T08:26:39.200Z,63.80
2017-09-02T08:29:06.854Z,63.80
2017-09-02T08:31:35.251Z,63.50
2017-09-02T08:34:02.908Z,63.40
2017-09-02T08:36:30.494Z,63.50
2017-09-02T08:38:58.132Z,63.50
2017-09-02T08:41:25.823Z,63.60
2017-09-02T08:43:53.453Z,63.40
2017-09-02T08:46:21.292Z,63.50
2017-09-02T08:48:48.898Z,63.40
2017-09-02T08:51:16.859Z,62.90
2017-09-02T08:53:45.218Z,61.30
2017-09-02T08:56:12.898Z,61.30
2017-09-02T08:58:40.606Z,60.70
2017-09-02T09:01:08.192Z,61.30
2017-09-02T09:03:35.781Z,60.70
2017-09-02T09:06:03.540Z,60.80
2017-09-02T09:08:31.211Z,60.20
2017-09-02T09:10:58.812Z,60.20
2017-09-02T09:13:26.545Z,59.60
2017-09-02T09:15:55.784Z,59.70
2017-09-02T09:18:23.397Z,59.60
2017-09-02T09:20:50.981Z,59.40
2017-09-02T09:23:18.574Z,59.00
2017-09-02T09:25:46.167Z,59.20
2017-09-02T09:28:13.833Z,59.10
2017-09-02T09:30:41.495Z,58.80
2017-09-02T09:33:09.164Z,58.90
2017-09-02T09:35:37.522Z,60.00
2017-09-02T09:38:05.112Z,59.90
2017-09-02T09:40:32.735Z,58.80
2017-09-02T09:43:00.335Z,58.50
2017-09-02T09:45:27.992Z,58.40
2017-09-02T09:47:55.616Z,58.20
2017-09-02T09:50:23.199Z,58.20
2017-09-02T09:52:50.806Z,58.00
2017-09-02T09:55:18.395Z,58.50
2017-09-02T09:57:46.023Z,57.50
2017-09-02T10:00:13.676Z,57.30
2017-09-02T10:02:42.069Z,56.30
2017-09-02T10:05:09.658Z,56.30
2017-09-02T10:07:37.294Z,57.00
2017-09-02T10:10:04.986Z,57.30
2017-09-02T10:12:33.965Z,57.00
2017-09-02T10:15:01.559Z,57.30
2017-09-02T10:17:29.173Z,57.70
2017-09-02T10:19:56.794Z,57.50
2017-09-02T10:22:24.483Z,57.60
2017-09-02T10:24:53.067Z,56.90
2017-09-02T10:27:20.730Z,57.00
2017-09-02T10:29:48.878Z,57.30
2017-09-02T10:32:16.473Z,57.40
2017-09-02T10:34:44.874Z,58.00
2017-09-02T10:37:12.511Z,57.40
2017-09-02T10:39:40.874Z,56.70
2017-09-02T10:42:08.472Z,56.60
2017-09-02T10:44:36.070Z,57.20
2017-09-02T10:47:03.653Z,57.10
2017-09-02T10:49:31.333Z,58.30
2017-09-02T10:51:58.937Z,57.10
2017-09-02T10:54:26.558Z,56.60
2017-09-02T10:56:54.215Z,57.30
2017-09-02T10:59:21.853Z,57.30
2017-09-02T11:01:49.548Z,57.70
2017-09-02T11:04:17.141Z,58.30
2017-09-02T11:06:44.730Z,57.70
2017-09-02T11:09:12.436Z,57.40
2017-09-02T11:11:40.038Z,57.10
2017-09-02T11:14:07.660Z,56.60
2017-09-02T11:16:35.283Z,57.60
2017-09-02T11:19:02.995Z,56.80
2017-09-02T11:21:30.588Z,57.10
2017-09-02T11:23:58.226Z,54.90
2017-09-02T11:26:25.814Z,55.70
2017-09-02T11:28:53.414Z,55.50
2017-09-02T11:31:21.008Z,54.60
2017-09-02T11:33:48.598Z,52.60
2017-09-02T11:36:16.223Z,52.80
2017-09-02T11:38:44.605Z,53.90
2017-09-02T11:41:12.962Z,54.30
2017-09-02T11:43:40.595Z,54.20
2017-09-02T11:46:08.187Z,54.00
2017-09-02T11:48:35.814Z,53.20
2017-09-02T11:51:03.407Z,53.50
2017-09-02T11:53:31.082Z,54.30
2017-09-02T11:55:59.431Z,53.70
2017-09-02T11:58:27.047Z,53.70
2017-09-02T12:00:54.641Z,51.00
2017-09-02T12:03:22.601Z,49.80
2017-09-02T12:05:50.189Z,49.80
2017-09-02T12:08:17.811Z,50.70
2017-09-02T12:10:46.182Z,51.90
